Antlers Park, Minnesota
Current Conditions -  °F | °C
As of 12:04 AM on Sunday 21 Dec 2014 (Local Time) from KLVN Reporting Station
Overcast Overcast  
Wind Chill: -6°   Ceiling: 1600
Heat Index: -2°   Visibility: 7mi
Dew Point: -3°   Wind: 7mph
Humidity: 93%   Direction: 140°SE
Pressure: 30.05"   Gusts: NA
Location:  44.6349°N, 93.283°W
Report Text: KLVN 210604Z AUTO 14006KT 7SM OVC016 M02/M03 A3005 RMK AO2
Loading
Personal Weather Stations






























Interactive Weather Map New forecast layout! Learn more

10-Day Weather Forecast

Advertisements
Track Severe Weather on mobile